AAL1205 KMCO-KLAX
Flight info
| Callsign | AAL1205 |
|---|---|
| Flight time | N/A |
| Altitude | 32000 |
| Route | RDSOX1 JFRYS PATOY Q116 JAWJA CABLO DEFUN CEW IRUBE MCB UIM TXO ACH SAF FLYBY KD36Q PLNDL PRFUM DNERO ANJLL4 |
| Aircraft | A321/M-SDE3FGHIRWY/LB1 |
Departure
| Time | 2026-04-26 22:21 |
|---|---|
| Airport | Orlando International Airport (KMCO) |
Arrival
| Time | N/A |
|---|---|
| Airport | Los Angeles International Airport (KLAX) |
| Time | Latitude | Longitude | Altitude | Speed | Heading |
|---|---|---|---|---|---|
| 2026-04-26 22:17 | 28.44175 | -81.31903 | 100 ft | 14 kts | 358° |
| 2026-04-26 22:18 | 28.44278 | -81.31904 | 100 ft | 16 kts | 1° |
| 2026-04-26 22:18 | 28.44395 | -81.31904 | 99 ft | 17 kts | 359° |
| 2026-04-26 22:18 | 28.44472 | -81.31904 | 100 ft | 17 kts | 359° |
| 2026-04-26 22:18 | 28.44588 | -81.31906 | 98 ft | 16 kts | 359° |
| 2026-04-26 22:19 | 28.44702 | -81.31907 | 99 ft | 16 kts | 359° |
| 2026-04-26 22:19 | 28.44806 | -81.31929 | 99 ft | 15 kts | 315° |
| 2026-04-26 22:19 | 28.44825 | -81.32043 | 100 ft | 15 kts | 271° |
| 2026-04-26 22:19 | 28.44824 | -81.32162 | 99 ft | 15 kts | 269° |
| 2026-04-26 22:20 | 28.44746 | -81.32232 | 99 ft | 23 kts | 181° |
| 2026-04-26 22:20 | 28.44379 | -81.32228 | 101 ft | 86 kts | 179° |
| 2026-04-26 22:20 | 28.43574 | -81.32219 | 99 ft | 143 kts | 179° |
| 2026-04-26 22:20 | 28.42407 | -81.32205 | 126 ft | 188 kts | 179° |
| 2026-04-26 22:21 | 28.41100 | -81.32171 | 836 ft | 184 kts | 181° |
| 2026-04-26 22:21 | 28.39850 | -81.32282 | 1552 ft | 181 kts | 201° |
| 2026-04-26 22:21 | 28.38664 | -81.32870 | 1903 ft | 191 kts | 208° |
| 2026-04-26 22:21 | 28.37426 | -81.33574 | 2059 ft | 206 kts | 210° |
| 2026-04-26 22:22 | 28.36107 | -81.34343 | 2229 ft | 220 kts | 210° |
| 2026-04-26 22:22 | 28.34833 | -81.35361 | 2342 ft | 235 kts | 230° |
| 2026-04-26 22:22 | 28.33727 | -81.36846 | 2509 ft | 256 kts | 231° |
| 2026-04-26 22:22 | 28.32577 | -81.38411 | 3027 ft | 259 kts | 231° |
| 2026-04-26 22:23 | 28.31452 | -81.40007 | 3565 ft | 261 kts | 239° |
| 2026-04-26 22:23 | 28.30821 | -81.41918 | 4138 ft | 261 kts | 264° |
| 2026-04-26 22:23 | 28.30968 | -81.43958 | 4712 ft | 262 kts | 284° |
| 2026-04-26 22:23 | 28.31461 | -81.45947 | 5315 ft | 262 kts | 285° |
| 2026-04-26 22:24 | 28.31953 | -81.47946 | 5892 ft | 264 kts | 284° |
| 2026-04-26 22:24 | 28.32446 | -81.49962 | 6494 ft | 266 kts | 284° |
| 2026-04-26 22:24 | 28.32939 | -81.51984 | 7071 ft | 268 kts | 284° |
| 2026-04-26 22:24 | 28.33437 | -81.54033 | 7645 ft | 270 kts | 284° |
| 2026-04-26 22:25 | 28.33940 | -81.56093 | 8179 ft | 272 kts | 284° |
| 2026-04-26 22:25 | 28.34448 | -81.58176 | 8700 ft | 275 kts | 284° |
| 2026-04-26 22:25 | 28.34955 | -81.60270 | 9229 ft | 276 kts | 284° |
| 2026-04-26 22:25 | 28.35465 | -81.62379 | 9761 ft | 278 kts | 284° |
| 2026-04-26 22:26 | 28.35976 | -81.64498 | 10277 ft | 279 kts | 285° |
| 2026-04-26 22:26 | 28.36496 | -81.66662 | 10540 ft | 292 kts | 285° |
| 2026-04-26 22:26 | 28.37045 | -81.68944 | 10688 ft | 308 kts | 285° |
| 2026-04-26 22:26 | 28.37623 | -81.71345 | 10858 ft | 322 kts | 285° |
| 2026-04-26 22:27 | 28.38221 | -81.73819 | 10979 ft | 337 kts | 286° |
| 2026-04-26 22:27 | 28.38857 | -81.76444 | 11114 ft | 351 kts | 286° |
| 2026-04-26 22:27 | 28.39510 | -81.79156 | 11416 ft | 359 kts | 286° |
| 2026-04-26 22:27 | 28.40170 | -81.81901 | 11908 ft | 362 kts | 286° |
| 2026-04-26 22:28 | 28.40831 | -81.84668 | 12382 ft | 364 kts | 286° |
| 2026-04-26 22:28 | 28.41495 | -81.87456 | 12875 ft | 367 kts | 286° |
| 2026-04-26 22:28 | 28.42165 | -81.90262 | 13355 ft | 369 kts | 285° |
| 2026-04-26 22:28 | 28.42595 | -81.93144 | 13813 ft | 373 kts | 275° |
| 2026-04-26 22:29 | 28.42662 | -81.96100 | 14287 ft | 376 kts | 272° |
| 2026-04-26 22:29 | 28.42710 | -81.99082 | 14773 ft | 379 kts | 272° |
| 2026-04-26 22:29 | 28.42756 | -82.02082 | 15251 ft | 380 kts | 272° |
| 2026-04-26 22:29 | 28.42802 | -82.05055 | 15729 ft | 382 kts | 272° |
| 2026-04-26 22:30 | 28.42851 | -82.08089 | 16168 ft | 386 kts | 272° |
| 2026-04-26 22:30 | 28.42901 | -82.11142 | 16622 ft | 388 kts | 272° |
| 2026-04-26 22:30 | 28.42950 | -82.14213 | 17062 ft | 390 kts | 272° |
| 2026-04-26 22:30 | 28.42999 | -82.17304 | 17512 ft | 392 kts | 272° |
| 2026-04-26 22:31 | 28.43045 | -82.20414 | 17932 ft | 395 kts | 272° |
| 2026-04-26 22:31 | 28.43089 | -82.23537 | 18337 ft | 397 kts | 272° |
| 2026-04-26 22:31 | 28.43133 | -82.26684 | 18738 ft | 399 kts | 272° |
| 2026-04-26 22:31 | 28.43178 | -82.29851 | 19125 ft | 402 kts | 272° |
| 2026-04-26 22:32 | 28.43225 | -82.33031 | 19533 ft | 403 kts | 271° |
| 2026-04-26 22:32 | 28.43265 | -82.36218 | 19867 ft | 405 kts | 271° |
| 2026-04-26 22:32 | 28.43308 | -82.39432 | 20202 ft | 408 kts | 272° |
| 2026-04-26 22:32 | 28.43664 | -82.42629 | 20531 ft | 409 kts | 284° |
| 2026-04-26 22:33 | 28.44635 | -82.45664 | 20843 ft | 411 kts | 296° |
| 2026-04-26 22:33 | 28.48242 | -82.50699 | 21415 ft | 418 kts | 321° |
| 2026-04-26 22:33 | 28.50697 | -82.52499 | 21692 ft | 422 kts | 328° |
| 2026-04-26 22:34 | 28.53241 | -82.54197 | 21990 ft | 425 kts | 327° |
| 2026-04-26 22:34 | 28.55762 | -82.55883 | 22270 ft | 430 kts | 327° |
| 2026-04-26 22:34 | 28.58341 | -82.57607 | 22596 ft | 430 kts | 327° |
| 2026-04-26 22:34 | 28.60921 | -82.59334 | 22890 ft | 431 kts | 327° |
| 2026-04-26 22:35 | 28.63512 | -82.61070 | 23161 ft | 433 kts | 327° |
| 2026-04-26 22:35 | 28.66115 | -82.62815 | 23431 ft | 435 kts | 327° |
| 2026-04-26 22:35 | 28.68728 | -82.64566 | 23694 ft | 437 kts | 327° |
| 2026-04-26 22:35 | 28.71357 | -82.66331 | 23950 ft | 439 kts | 327° |
| 2026-04-26 22:36 | 28.73996 | -82.68103 | 24201 ft | 441 kts | 327° |
| 2026-04-26 22:36 | 28.76642 | -82.69878 | 24468 ft | 442 kts | 327° |
| 2026-04-26 22:36 | 28.79298 | -82.71658 | 24734 ft | 444 kts | 327° |
| 2026-04-26 22:36 | 28.81964 | -82.73448 | 24998 ft | 444 kts | 327° |
| 2026-04-26 22:37 | 28.84631 | -82.75242 | 25248 ft | 446 kts | 327° |
| 2026-04-26 22:37 | 28.87301 | -82.77044 | 25501 ft | 447 kts | 327° |
| 2026-04-26 22:37 | 28.89979 | -82.78853 | 25755 ft | 448 kts | 327° |
| 2026-04-26 22:37 | 28.92665 | -82.80668 | 25996 ft | 449 kts | 327° |
| 2026-04-26 22:38 | 28.95357 | -82.82487 | 26231 ft | 450 kts | 327° |
| 2026-04-26 22:38 | 28.98056 | -82.84311 | 26461 ft | 451 kts | 327° |
| 2026-04-26 22:38 | 29.00761 | -82.86141 | 26710 ft | 452 kts | 327° |
| 2026-04-26 22:38 | 29.03475 | -82.87975 | 26964 ft | 453 kts | 327° |
| 2026-04-26 22:39 | 29.06187 | -82.89813 | 27204 ft | 454 kts | 326° |
| 2026-04-26 22:39 | 29.08812 | -82.91715 | 27535 ft | 451 kts | 324° |
| 2026-04-26 22:39 | 29.11390 | -82.93751 | 27876 ft | 449 kts | 322° |
| 2026-04-26 22:39 | 29.13907 | -82.95851 | 28210 ft | 447 kts | 321° |
| 2026-04-26 22:40 | 29.16394 | -82.97976 | 28526 ft | 446 kts | 321° |
| 2026-04-26 22:40 | 29.18877 | -83.00094 | 28854 ft | 444 kts | 321° |
| 2026-04-26 22:40 | 29.21364 | -83.02187 | 29175 ft | 442 kts | 321° |
| 2026-04-26 22:40 | 29.23856 | -83.04247 | 29489 ft | 441 kts | 322° |
| 2026-04-26 22:41 | 29.26348 | -83.06283 | 29797 ft | 440 kts | 322° |
| 2026-04-26 22:41 | 29.28845 | -83.08310 | 30094 ft | 438 kts | 322° |
| 2026-04-26 22:41 | 29.31330 | -83.10324 | 30387 ft | 437 kts | 322° |
| 2026-04-26 22:41 | 29.33802 | -83.12341 | 30678 ft | 435 kts | 322° |
| 2026-04-26 22:42 | 29.36258 | -83.14358 | 30951 ft | 434 kts | 321° |
| 2026-04-26 22:42 | 29.38708 | -83.16377 | 31230 ft | 432 kts | 321° |
| 2026-04-26 22:42 | 29.41145 | -83.18386 | 31493 ft | 431 kts | 321° |
| 2026-04-26 22:42 | 29.43579 | -83.20387 | 31761 ft | 430 kts | 322° |
| 2026-04-26 22:43 | 29.46009 | -83.22388 | 31901 ft | 430 kts | 322° |
| 2026-04-26 22:43 | 29.50823 | -83.26364 | 31931 ft | 428 kts | 321° |
| 2026-04-26 22:44 | 29.55667 | -83.30353 | 31936 ft | 428 kts | 322° |
| 2026-04-26 22:44 | 29.60512 | -83.34342 | 31932 ft | 428 kts | 321° |
| 2026-04-26 22:45 | 29.65346 | -83.38345 | 31926 ft | 428 kts | 321° |
| 2026-04-26 22:45 | 29.70185 | -83.42350 | 31940 ft | 428 kts | 321° |
| 2026-04-26 22:46 | 29.75019 | -83.46357 | 31936 ft | 428 kts | 321° |
| 2026-04-26 22:46 | 29.79859 | -83.50367 | 31932 ft | 429 kts | 321° |
| 2026-04-26 22:47 | 29.84696 | -83.54379 | 31943 ft | 428 kts | 321° |
| 2026-04-26 22:47 | 29.89507 | -83.58373 | 31947 ft | 429 kts | 321° |
| 2026-04-26 22:48 | 29.94349 | -83.62403 | 31949 ft | 429 kts | 321° |
| 2026-04-26 22:48 | 29.99187 | -83.66430 | 31951 ft | 428 kts | 321° |
| 2026-04-26 22:49 | 30.04021 | -83.70453 | 31954 ft | 428 kts | 321° |
| 2026-04-26 22:49 | 30.08847 | -83.74483 | 31955 ft | 427 kts | 321° |
| 2026-04-26 22:50 | 30.13663 | -83.78521 | 31957 ft | 427 kts | 321° |
| 2026-04-26 22:50 | 30.18089 | -83.82980 | 31962 ft | 424 kts | 307° |
| 2026-04-26 22:51 | 30.21476 | -83.88532 | 31959 ft | 422 kts | 303° |
| 2026-04-26 22:51 | 30.24798 | -83.94135 | 31958 ft | 422 kts | 303° |
| 2026-04-26 22:52 | 30.28124 | -83.99743 | 31956 ft | 423 kts | 303° |
| 2026-04-26 22:52 | 30.31446 | -84.05357 | 31958 ft | 423 kts | 303° |
| 2026-04-26 22:53 | 30.34767 | -84.10977 | 31957 ft | 423 kts | 303° |
| 2026-04-26 22:53 | 30.38087 | -84.16597 | 31956 ft | 422 kts | 303° |
| 2026-04-26 22:54 | 30.41399 | -84.22226 | 31951 ft | 422 kts | 303° |
| 2026-04-26 22:54 | 30.44700 | -84.27853 | 31952 ft | 422 kts | 303° |
| 2026-04-26 22:55 | 30.47978 | -84.33435 | 31950 ft | 421 kts | 303° |
| 2026-04-26 22:55 | 30.51280 | -84.39051 | 31952 ft | 421 kts | 303° |
| 2026-04-26 22:56 | 30.54572 | -84.44657 | 31958 ft | 420 kts | 303° |
| 2026-04-26 22:56 | 30.57852 | -84.50275 | 31968 ft | 420 kts | 302° |
| 2026-04-26 22:57 | 30.61127 | -84.55888 | 31976 ft | 420 kts | 303° |
| 2026-04-26 22:57 | 30.64405 | -84.61501 | 31984 ft | 420 kts | 303° |
| 2026-04-26 22:58 | 30.67674 | -84.67124 | 31983 ft | 420 kts | 303° |
| 2026-04-26 22:58 | 30.70943 | -84.72745 | 31984 ft | 419 kts | 303° |
| 2026-04-26 22:59 | 30.74203 | -84.78360 | 31982 ft | 419 kts | 303° |
| 2026-04-26 22:59 | 30.76894 | -84.84319 | 31974 ft | 417 kts | 287° |
| 2026-04-26 23:00 | 30.77721 | -84.90926 | 31972 ft | 418 kts | 274° |
| 2026-04-26 23:00 | 30.77949 | -84.97688 | 31967 ft | 419 kts | 274° |
| 2026-04-26 23:01 | 30.78177 | -85.04463 | 31966 ft | 419 kts | 274° |
| 2026-04-26 23:01 | 30.78407 | -85.11241 | 31965 ft | 419 kts | 274° |
| 2026-04-26 23:02 | 30.78634 | -85.18013 | 31963 ft | 419 kts | 274° |
| 2026-04-26 23:02 | 30.78850 | -85.24749 | 31958 ft | 419 kts | 274° |
| 2026-04-26 23:03 | 30.79069 | -85.31518 | 31957 ft | 418 kts | 274° |
| 2026-04-26 23:03 | 30.79287 | -85.38280 | 31954 ft | 418 kts | 274° |
| 2026-04-26 23:04 | 30.79498 | -85.45032 | 31954 ft | 418 kts | 274° |
| 2026-04-26 23:04 | 30.79709 | -85.51785 | 31953 ft | 418 kts | 274° |
| 2026-04-26 23:05 | 30.79916 | -85.58497 | 31956 ft | 418 kts | 274° |
| 2026-04-26 23:05 | 30.80109 | -85.65256 | 31957 ft | 418 kts | 274° |
| 2026-04-26 23:06 | 30.80298 | -85.72025 | 31955 ft | 418 kts | 274° |
| 2026-04-26 23:06 | 30.80494 | -85.78786 | 31957 ft | 418 kts | 274° |
| 2026-04-26 23:07 | 30.80692 | -85.85550 | 31962 ft | 418 kts | 274° |
| 2026-04-26 23:07 | 30.80879 | -85.92278 | 31969 ft | 419 kts | 274° |
| 2026-04-26 23:08 | 30.81062 | -85.99044 | 31972 ft | 418 kts | 274° |
| 2026-04-26 23:08 | 30.81230 | -86.05815 | 31972 ft | 418 kts | 274° |
| 2026-04-26 23:09 | 30.81395 | -86.12578 | 31984 ft | 419 kts | 274° |
| 2026-04-26 23:09 | 30.81568 | -86.19356 | 31989 ft | 419 kts | 274° |
| 2026-04-26 23:10 | 30.81730 | -86.26130 | 31986 ft | 419 kts | 274° |
| 2026-04-26 23:10 | 30.81885 | -86.32894 | 31987 ft | 418 kts | 274° |
| 2026-04-26 23:11 | 30.82033 | -86.39622 | 31986 ft | 419 kts | 274° |
| 2026-04-26 23:11 | 30.82179 | -86.46386 | 31987 ft | 418 kts | 274° |
| 2026-04-26 23:12 | 30.82316 | -86.53156 | 31991 ft | 418 kts | 274° |
| 2026-04-26 23:12 | 30.82428 | -86.58794 | 31996 ft | 419 kts | 274° |
| 2026-04-26 23:13 | 30.82569 | -86.65580 | 32001 ft | 420 kts | 274° |
| 2026-04-26 23:13 | 30.82851 | -86.72350 | 32001 ft | 418 kts | 277° |
| 2026-04-26 23:14 | 30.83482 | -86.79066 | 32003 ft | 418 kts | 279° |
| 2026-04-26 23:14 | 30.84169 | -86.85776 | 31998 ft | 417 kts | 279° |
| 2026-04-26 23:15 | 30.84779 | -86.92499 | 31984 ft | 418 kts | 278° |
| 2026-04-26 23:15 | 30.85334 | -86.99225 | 31984 ft | 418 kts | 278° |
| 2026-04-26 23:16 | 30.85886 | -87.05908 | 31986 ft | 417 kts | 278° |
| 2026-04-26 23:16 | 30.86456 | -87.12630 | 31982 ft | 417 kts | 278° |
| 2026-04-26 23:17 | 30.87021 | -87.19343 | 31979 ft | 416 kts | 278° |
| 2026-04-26 23:17 | 30.87581 | -87.26039 | 31975 ft | 416 kts | 278° |